sensor_id;sensor_type;location;lat;lon;timestamp;pressure;altitude;pressure_sealevel;temperature;humidity
22582;BME280;47125;48.542;9.052;2022-11-20T00:01:07;95506.16;;;7.52;nan
22582;BME280;47125;48.542;9.052;2022-11-20T00:11:10;95497.56;;;7.27;nan
22582;BME280;47125;48.542;9.052;2022-11-20T00:21:18;95505.09;;;7.30;nan
22582;BME280;47125;48.542;9.052;2022-11-20T00:31:21;95499.00;;;7.30;nan
22582;BME280;47125;48.542;9.052;2022-11-20T00:41:25;95500.81;;;7.29;nan
22582;BME280;47125;48.542;9.052;2022-11-20T00:51:28;95506.81;;;7.25;nan
22582;BME280;47125;48.542;9.052;2022-11-20T01:01:32;95517.44;;;7.25;nan
22582;BME280;47125;48.542;9.052;2022-11-20T01:11:35;95529.75;;;7.07;nan
22582;BME280;47125;48.542;9.052;2022-11-20T01:21:40;95535.31;;;7.06;nan
22582;BME280;47125;48.542;9.052;2022-11-20T01:31:43;95539.00;;;6.75;nan
22582;BME280;47125;48.542;9.052;2022-11-20T01:41:47;95533.31;;;7.01;nan
22582;BME280;47125;48.542;9.052;2022-11-20T01:52:11;95534.44;;;6.94;nan
22582;BME280;47125;48.542;9.052;2022-11-20T02:02:17;95535.84;;;6.96;nan
22582;BME280;47125;48.542;9.052;2022-11-20T02:12:20;95540.69;;;6.99;nan
22582;BME280;47125;48.542;9.052;2022-11-20T02:22:42;95536.38;;;6.87;nan
22582;BME280;47125;48.542;9.052;2022-11-20T02:32:47;95524.97;;;6.68;nan
22582;BME280;47125;48.542;9.052;2022-11-20T02:42:51;95523.22;;;6.62;nan
22582;BME280;47125;48.542;9.052;2022-11-20T02:52:55;95522.91;;;6.70;nan
22582;BME280;47125;48.542;9.052;2022-11-20T03:02:58;95523.38;;;6.49;nan
22582;BME280;47125;48.542;9.052;2022-11-20T03:13:01;95520.22;;;6.40;nan
22582;BME280;47125;48.542;9.052;2022-11-20T03:23:04;95515.78;;;6.52;nan
22582;BME280;47125;48.542;9.052;2022-11-20T03:33:08;95509.16;;;6.61;nan
22582;BME280;47125;48.542;9.052;2022-11-20T03:43:11;95508.66;;;6.83;nan
22582;BME280;47125;48.542;9.052;2022-11-20T03:53:14;95527.84;;;6.85;nan
22582;BME280;47125;48.542;9.052;2022-11-20T04:03:17;95535.56;;;6.86;nan
22582;BME280;47125;48.542;9.052;2022-11-20T04:13:21;95541.31;;;6.83;nan
22582;BME280;47125;48.542;9.052;2022-11-20T04:23:23;95527.88;;;6.67;nan
22582;BME280;47125;48.542;9.052;2022-11-20T04:33:30;95523.50;;;6.72;nan
22582;BME280;47125;48.542;9.052;2022-11-20T04:43:34;95514.56;;;6.85;nan
22582;BME280;47125;48.542;9.052;2022-11-20T04:53:38;95505.75;;;6.73;nan
22582;BME280;47125;48.542;9.052;2022-11-20T05:03:41;95509.03;;;6.56;nan
22582;BME280;47125;48.542;9.052;2022-11-20T05:13:45;95505.69;;;6.61;nan
22582;BME280;47125;48.542;9.052;2022-11-20T05:23:48;95503.88;;;6.43;nan
22582;BME280;47125;48.542;9.052;2022-11-20T05:33:52;95499.63;;;6.42;nan
22582;BME280;47125;48.542;9.052;2022-11-20T05:43:55;95501.13;;;6.50;nan
22582;BME280;47125;48.542;9.052;2022-11-20T05:53:59;95498.50;;;6.50;nan
22582;BME280;47125;48.542;9.052;2022-11-20T06:04:01;95507.38;;;6.55;nan
22582;BME280;47125;48.542;9.052;2022-11-20T06:14:07;95497.34;;;6.46;nan
22582;BME280;47125;48.542;9.052;2022-11-20T06:24:11;95500.50;;;6.54;nan
22582;BME280;47125;48.542;9.052;2022-11-20T06:34:15;95497.78;;;6.43;nan
22582;BME280;47125;48.542;9.052;2022-11-20T06:44:18;95500.56;;;6.48;nan
22582;BME280;47125;48.542;9.052;2022-11-20T06:54:22;95510.38;;;6.47;nan
22582;BME280;47125;48.542;9.052;2022-11-20T07:04:24;95513.78;;;6.36;nan
22582;BME280;47125;48.542;9.052;2022-11-20T07:14:29;95513.41;;;6.33;nan
22582;BME280;47125;48.542;9.052;2022-11-20T07:24:32;95529.88;;;6.35;nan
22582;BME280;47125;48.542;9.052;2022-11-20T07:34:36;95527.53;;;6.27;nan
22582;BME280;47125;48.542;9.052;2022-11-20T07:44:38;95528.34;;;6.45;nan
22582;BME280;47125;48.542;9.052;2022-11-20T07:54:42;95529.06;;;6.52;nan
22582;BME280;47125;48.542;9.052;2022-11-20T08:04:45;95538.06;;;6.51;nan
22582;BME280;47125;48.542;9.052;2022-11-20T08:14:49;95537.97;;;6.58;nan
22582;BME280;47125;48.542;9.052;2022-11-20T08:24:51;95552.91;;;6.71;nan
22582;BME280;47125;48.542;9.052;2022-11-20T08:34:55;95568.09;;;6.82;nan
22582;BME280;47125;48.542;9.052;2022-11-20T08:44:57;95576.47;;;6.97;nan
22582;BME280;47125;48.542;9.052;2022-11-20T08:55:01;95581.34;;;7.00;nan
22582;BME280;47125;48.542;9.052;2022-11-20T09:05:04;95581.63;;;6.92;nan
22582;BME280;47125;48.542;9.052;2022-11-20T09:15:09;95594.84;;;7.10;nan
22582;BME280;47125;48.542;9.052;2022-11-20T09:25:12;95597.69;;;7.27;nan
22582;BME280;47125;48.542;9.052;2022-11-20T09:35:16;95591.50;;;7.33;nan
22582;BME280;47125;48.542;9.052;2022-11-20T09:45:21;95613.75;;;7.32;nan
22582;BME280;47125;48.542;9.052;2022-11-20T09:55:26;95607.09;;;7.41;nan
22582;BME280;47125;48.542;9.052;2022-11-20T10:05:31;95611.59;;;7.40;nan
22582;BME280;47125;48.542;9.052;2022-11-20T10:15:41;95604.19;;;7.42;nan
22582;BME280;47125;48.542;9.052;2022-11-20T10:25:46;95613.38;;;7.58;nan
22582;BME280;47125;48.542;9.052;2022-11-20T10:35:55;95611.38;;;7.42;nan
22582;BME280;47125;48.542;9.052;2022-11-20T10:46:01;95603.81;;;7.68;nan
22582;BME280;47125;48.542;9.052;2022-11-20T10:56:09;95604.50;;;7.75;nan
22582;BME280;47125;48.542;9.052;2022-11-20T11:06:14;95591.69;;;7.84;nan
22582;BME280;47125;48.542;9.052;2022-11-20T11:16:23;95586.97;;;7.86;nan
22582;BME280;47125;48.542;9.052;2022-11-20T11:26:26;95580.72;;;8.04;nan
22582;BME280;47125;48.542;9.052;2022-11-20T11:36:30;95564.06;;;8.55;nan
22582;BME280;47125;48.542;9.052;2022-11-20T11:46:33;95545.69;;;9.10;nan
22582;BME280;47125;48.542;9.052;2022-11-20T11:56:38;95538.00;;;8.97;nan
22582;BME280;47125;48.542;9.052;2022-11-20T12:06:42;95525.56;;;9.47;nan
22582;BME280;47125;48.542;9.052;2022-11-20T12:16:47;95530.56;;;9.27;nan
22582;BME280;47125;48.542;9.052;2022-11-20T12:26:54;95513.75;;;9.10;nan
22582;BME280;47125;48.542;9.052;2022-11-20T12:37:01;95509.56;;;8.85;nan
22582;BME280;47125;48.542;9.052;2022-11-20T12:47:10;95529.81;;;8.86;nan
22582;BME280;47125;48.542;9.052;2022-11-20T12:57:18;95517.25;;;9.60;nan
22582;BME280;47125;48.542;9.052;2022-11-20T13:07:23;95520.22;;;9.47;nan
22582;BME280;47125;48.542;9.052;2022-11-20T13:17:30;95517.91;;;9.34;nan
22582;BME280;47125;48.542;9.052;2022-11-20T13:27:36;95509.78;;;9.12;nan
22582;BME280;47125;48.542;9.052;2022-11-20T13:37:58;95498.28;;;8.67;nan
22582;BME280;47125;48.542;9.052;2022-11-20T13:48:02;95472.44;;;8.96;nan
22582;BME280;47125;48.542;9.052;2022-11-20T13:58:15;95468.19;;;8.66;nan
22582;BME280;47125;48.542;9.052;2022-11-20T14:08:24;95458.56;;;8.77;nan
22582;BME280;47125;48.542;9.052;2022-11-20T14:18:29;95455.84;;;8.60;nan
22582;BME280;47125;48.542;9.052;2022-11-20T14:28:31;95459.81;;;8.74;nan
22582;BME280;47125;48.542;9.052;2022-11-20T14:38:36;95446.91;;;8.66;nan
22582;BME280;47125;48.542;9.052;2022-11-20T14:48:39;95433.50;;;8.61;nan
22582;BME280;47125;48.542;9.052;2022-11-20T14:58:44;95419.94;;;8.46;nan
22582;BME280;47125;48.542;9.052;2022-11-20T15:08:57;95420.38;;;9.71;nan
22582;BME280;47125;48.542;9.052;2022-11-20T15:19:01;95399.03;;;8.83;nan
22582;BME280;47125;48.542;9.052;2022-11-20T15:29:04;95383.03;;;8.66;nan
22582;BME280;47125;48.542;9.052;2022-11-20T15:39:08;95381.47;;;8.25;nan
22582;BME280;47125;48.542;9.052;2022-11-20T15:49:13;95363.94;;;8.41;nan
22582;BME280;47125;48.542;9.052;2022-11-20T15:59:17;95365.16;;;8.34;nan
22582;BME280;47125;48.542;9.052;2022-11-20T16:09:20;95360.41;;;8.24;nan
22582;BME280;47125;48.542;9.052;2022-11-20T16:19:24;95377.28;;;8.01;nan
22582;BME280;47125;48.542;9.052;2022-11-20T16:29:26;95370.13;;;7.90;nan
22582;BME280;47125;48.542;9.052;2022-11-20T16:39:30;95365.53;;;7.86;nan
22582;BME280;47125;48.542;9.052;2022-11-20T16:49:33;95350.38;;;7.86;nan
22582;BME280;47125;48.542;9.052;2022-11-20T16:59:36;95348.16;;;7.95;nan
22582;BME280;47125;48.542;9.052;2022-11-20T17:09:39;95343.22;;;7.87;nan
22582;BME280;47125;48.542;9.052;2022-11-20T17:19:43;95335.44;;;7.97;nan
22582;BME280;47125;48.542;9.052;2022-11-20T17:29:45;95328.41;;;7.91;nan
22582;BME280;47125;48.542;9.052;2022-11-20T17:39:49;95329.59;;;7.83;nan
22582;BME280;47125;48.542;9.052;2022-11-20T17:49:52;95319.91;;;7.77;nan
22582;BME280;47125;48.542;9.052;2022-11-20T17:59:56;95313.91;;;7.70;nan
22582;BME280;47125;48.542;9.052;2022-11-20T18:09:59;95295.56;;;7.68;nan
22582;BME280;47125;48.542;9.052;2022-11-20T18:20:03;95285.16;;;7.67;nan
22582;BME280;47125;48.542;9.052;2022-11-20T18:30:26;95276.06;;;7.63;nan
22582;BME280;47125;48.542;9.052;2022-11-20T18:40:30;95257.75;;;7.66;nan
22582;BME280;47125;48.542;9.052;2022-11-20T18:50:32;95257.47;;;7.63;nan
22582;BME280;47125;48.542;9.052;2022-11-20T19:00:36;95243.44;;;7.67;nan
22582;BME280;47125;48.542;9.052;2022-11-20T19:10:39;95255.78;;;7.34;nan
22582;BME280;47125;48.542;9.052;2022-11-20T19:20:43;95268.09;;;7.11;nan
22582;BME280;47125;48.542;9.052;2022-11-20T19:30:46;95255.63;;;7.00;nan
22582;BME280;47125;48.542;9.052;2022-11-20T19:40:50;95251.03;;;6.96;nan
22582;BME280;47125;48.542;9.052;2022-11-20T19:50:52;95244.66;;;6.85;nan
22582;BME280;47125;48.542;9.052;2022-11-20T20:00:56;95239.03;;;6.82;nan
22582;BME280;47125;48.542;9.052;2022-11-20T20:10:58;95233.97;;;6.69;nan
22582;BME280;47125;48.542;9.052;2022-11-20T20:21:04;95244.34;;;6.82;nan
22582;BME280;47125;48.542;9.052;2022-11-20T20:31:07;95237.44;;;6.69;nan
22582;BME280;47125;48.542;9.052;2022-11-20T20:41:11;95243.31;;;6.59;nan
22582;BME280;47125;48.542;9.052;2022-11-20T20:51:14;95255.66;;;6.54;nan
22582;BME280;47125;48.542;9.052;2022-11-20T21:01:17;95263.72;;;6.47;nan
22582;BME280;47125;48.542;9.052;2022-11-20T21:11:21;95259.22;;;6.59;nan
22582;BME280;47125;48.542;9.052;2022-11-20T21:21:25;95279.63;;;6.47;nan
22582;BME280;47125;48.542;9.052;2022-11-20T21:31:45;95273.75;;;6.80;nan
22582;BME280;47125;48.542;9.052;2022-11-20T21:41:49;95279.16;;;6.50;nan
22582;BME280;47125;48.542;9.052;2022-11-20T21:51:51;95260.16;;;6.53;nan
22582;BME280;47125;48.542;9.052;2022-11-20T22:01:55;95275.44;;;6.28;nan
22582;BME280;47125;48.542;9.052;2022-11-20T22:11:58;95302.00;;;6.51;nan
22582;BME280;47125;48.542;9.052;2022-11-20T22:22:02;95300.66;;;6.19;nan
22582;BME280;47125;48.542;9.052;2022-11-20T22:32:04;95290.69;;;6.33;nan
22582;BME280;47125;48.542;9.052;2022-11-20T22:42:08;95299.63;;;6.20;nan
22582;BME280;47125;48.542;9.052;2022-11-20T22:52:11;95307.59;;;6.20;nan
22582;BME280;47125;48.542;9.052;2022-11-20T23:02:15;95299.06;;;6.18;nan
22582;BME280;47125;48.542;9.052;2022-11-20T23:12:17;95310.47;;;6.19;nan
22582;BME280;47125;48.542;9.052;2022-11-20T23:22:21;95308.56;;;6.07;nan
22582;BME280;47125;48.542;9.052;2022-11-20T23:32:23;95306.88;;;6.13;nan
22582;BME280;47125;48.542;9.052;2022-11-20T23:42:27;95297.50;;;5.99;nan
22582;BME280;47125;48.542;9.052;2022-11-20T23:52:30;95310.66;;;6.05;nan
